sensor_id;sensor_type;location;lat;lon;timestamp;P1;durP1;ratioP1;P2;durP2;ratioP2
7905;SDS011;13291;40.472;-3.878;2023-05-21T00:00:49;2.70;;;1.80;;
7905;SDS011;13291;40.472;-3.878;2023-05-21T00:03:17;3.47;;;1.70;;
7905;SDS011;13291;40.472;-3.878;2023-05-21T00:05:45;3.67;;;2.00;;
7905;SDS011;13291;40.472;-3.878;2023-05-21T00:08:14;2.50;;;1.60;;
7905;SDS011;13291;40.472;-3.878;2023-05-21T00:10:42;2.87;;;1.90;;
7905;SDS011;13291;40.472;-3.878;2023-05-21T00:13:09;2.53;;;1.77;;
7905;SDS011;13291;40.472;-3.878;2023-05-21T00:15:36;3.73;;;2.10;;
7905;SDS011;13291;40.472;-3.878;2023-05-21T00:18:03;3.00;;;1.97;;
7905;SDS011;13291;40.472;-3.878;2023-05-21T00:20:30;2.50;;;1.70;;
7905;SDS011;13291;40.472;-3.878;2023-05-21T00:22:57;2.23;;;1.80;;
7905;SDS011;13291;40.472;-3.878;2023-05-21T00:25:26;3.87;;;2.00;;
7905;SDS011;13291;40.472;-3.878;2023-05-21T00:27:55;1.70;;;1.60;;
7905;SDS011;13291;40.472;-3.878;2023-05-21T00:30:22;2.67;;;2.20;;
7905;SDS011;13291;40.472;-3.878;2023-05-21T00:32:49;2.80;;;1.70;;
7905;SDS011;13291;40.472;-3.878;2023-05-21T00:35:16;2.00;;;1.50;;
7905;SDS011;13291;40.472;-3.878;2023-05-21T00:37:43;2.20;;;1.77;;
7905;SDS011;13291;40.472;-3.878;2023-05-21T00:40:11;3.73;;;2.00;;
7905;SDS011;13291;40.472;-3.878;2023-05-21T00:42:38;3.33;;;1.97;;
7905;SDS011;13291;40.472;-3.878;2023-05-21T00:45:07;2.10;;;1.73;;
7905;SDS011;13291;40.472;-3.878;2023-05-21T00:47:34;2.43;;;1.80;;
7905;SDS011;13291;40.472;-3.878;2023-05-21T00:50:03;3.23;;;1.80;;
7905;SDS011;13291;40.472;-3.878;2023-05-21T00:52:31;4.37;;;1.97;;
7905;SDS011;13291;40.472;-3.878;2023-05-21T00:55:06;4.10;;;1.87;;
7905;SDS011;13291;40.472;-3.878;2023-05-21T00:57:34;2.70;;;2.03;;
7905;SDS011;13291;40.472;-3.878;2023-05-21T01:00:02;5.60;;;2.07;;
7905;SDS011;13291;40.472;-3.878;2023-05-21T01:02:32;5.43;;;2.03;;
7905;SDS011;13291;40.472;-3.878;2023-05-21T01:05:01;3.10;;;2.17;;
7905;SDS011;13291;40.472;-3.878;2023-05-21T01:07:29;2.37;;;2.00;;
7905;SDS011;13291;40.472;-3.878;2023-05-21T01:09:59;3.80;;;2.37;;
7905;SDS011;13291;40.472;-3.878;2023-05-21T01:12:27;2.70;;;1.53;;
7905;SDS011;13291;40.472;-3.878;2023-05-21T01:14:56;2.47;;;1.90;;
7905;SDS011;13291;40.472;-3.878;2023-05-21T01:17:24;2.90;;;2.00;;
7905;SDS011;13291;40.472;-3.878;2023-05-21T01:19:54;2.67;;;2.00;;
7905;SDS011;13291;40.472;-3.878;2023-05-21T01:22:22;3.30;;;1.80;;
7905;SDS011;13291;40.472;-3.878;2023-05-21T01:24:52;3.53;;;2.40;;
7905;SDS011;13291;40.472;-3.878;2023-05-21T01:27:20;4.10;;;1.80;;
7905;SDS011;13291;40.472;-3.878;2023-05-21T01:29:47;2.27;;;1.80;;
7905;SDS011;13291;40.472;-3.878;2023-05-21T01:32:15;4.80;;;2.30;;
7905;SDS011;13291;40.472;-3.878;2023-05-21T01:34:49;3.23;;;1.70;;
7905;SDS011;13291;40.472;-3.878;2023-05-21T01:37:25;2.60;;;1.80;;
7905;SDS011;13291;40.472;-3.878;2023-05-21T01:39:58;2.80;;;2.10;;
7905;SDS011;13291;40.472;-3.878;2023-05-21T01:42:29;1.73;;;1.50;;
7905;SDS011;13291;40.472;-3.878;2023-05-21T01:44:57;3.70;;;1.77;;
7905;SDS011;13291;40.472;-3.878;2023-05-21T01:47:26;3.13;;;1.87;;
7905;SDS011;13291;40.472;-3.878;2023-05-21T01:49:57;4.20;;;2.20;;
7905;SDS011;13291;40.472;-3.878;2023-05-21T01:52:25;4.17;;;1.87;;
7905;SDS011;13291;40.472;-3.878;2023-05-21T01:54:51;3.60;;;1.90;;
7905;SDS011;13291;40.472;-3.878;2023-05-21T01:57:20;2.00;;;1.60;;
7905;SDS011;13291;40.472;-3.878;2023-05-21T01:59:47;5.63;;;2.33;;
7905;SDS011;13291;40.472;-3.878;2023-05-21T02:02:14;4.00;;;1.80;;
7905;SDS011;13291;40.472;-3.878;2023-05-21T02:04:41;4.07;;;2.30;;
7905;SDS011;13291;40.472;-3.878;2023-05-21T02:07:09;4.77;;;2.10;;
7905;SDS011;13291;40.472;-3.878;2023-05-21T02:09:38;3.23;;;2.00;;
7905;SDS011;13291;40.472;-3.878;2023-05-21T02:12:05;3.30;;;2.27;;
7905;SDS011;13291;40.472;-3.878;2023-05-21T02:14:34;3.00;;;2.33;;
7905;SDS011;13291;40.472;-3.878;2023-05-21T02:17:02;5.40;;;2.37;;
7905;SDS011;13291;40.472;-3.878;2023-05-21T02:19:29;3.57;;;1.70;;
7905;SDS011;13291;40.472;-3.878;2023-05-21T02:21:56;3.53;;;2.03;;
7905;SDS011;13291;40.472;-3.878;2023-05-21T02:24:23;4.97;;;2.00;;
7905;SDS011;13291;40.472;-3.878;2023-05-21T02:26:50;3.83;;;2.00;;
7905;SDS011;13291;40.472;-3.878;2023-05-21T02:29:17;2.50;;;2.10;;
7905;SDS011;13291;40.472;-3.878;2023-05-21T02:31:45;2.77;;;1.70;;
7905;SDS011;13291;40.472;-3.878;2023-05-21T02:34:12;3.10;;;2.00;;
7905;SDS011;13291;40.472;-3.878;2023-05-21T02:36:40;2.30;;;1.70;;
7905;SDS011;13291;40.472;-3.878;2023-05-21T02:39:07;5.10;;;1.90;;
7905;SDS011;13291;40.472;-3.878;2023-05-21T02:41:34;3.80;;;1.90;;
7905;SDS011;13291;40.472;-3.878;2023-05-21T02:44:02;2.80;;;2.23;;
7905;SDS011;13291;40.472;-3.878;2023-05-21T02:46:29;4.43;;;1.60;;
7905;SDS011;13291;40.472;-3.878;2023-05-21T02:48:57;3.33;;;1.90;;
7905;SDS011;13291;40.472;-3.878;2023-05-21T02:51:24;3.80;;;1.97;;
7905;SDS011;13291;40.472;-3.878;2023-05-21T02:53:51;3.10;;;1.63;;
7905;SDS011;13291;40.472;-3.878;2023-05-21T02:56:18;5.20;;;2.73;;
7905;SDS011;13291;40.472;-3.878;2023-05-21T02:58:45;2.93;;;2.00;;
7905;SDS011;13291;40.472;-3.878;2023-05-21T03:01:11;6.10;;;2.20;;
7905;SDS011;13291;40.472;-3.878;2023-05-21T03:03:38;2.50;;;1.80;;
7905;SDS011;13291;40.472;-3.878;2023-05-21T03:06:06;4.77;;;2.00;;
7905;SDS011;13291;40.472;-3.878;2023-05-21T03:08:34;6.30;;;2.70;;
7905;SDS011;13291;40.472;-3.878;2023-05-21T03:11:01;4.60;;;2.00;;
7905;SDS011;13291;40.472;-3.878;2023-05-21T03:13:28;3.50;;;1.93;;
7905;SDS011;13291;40.472;-3.878;2023-05-21T03:15:55;3.83;;;2.10;;
7905;SDS011;13291;40.472;-3.878;2023-05-21T03:18:22;3.07;;;2.07;;
7905;SDS011;13291;40.472;-3.878;2023-05-21T03:20:49;4.77;;;2.40;;
7905;SDS011;13291;40.472;-3.878;2023-05-21T03:23:17;3.40;;;1.90;;
7905;SDS011;13291;40.472;-3.878;2023-05-21T03:25:44;2.67;;;2.10;;
7905;SDS011;13291;40.472;-3.878;2023-05-21T03:28:11;3.80;;;2.10;;
7905;SDS011;13291;40.472;-3.878;2023-05-21T03:30:38;6.93;;;2.50;;
7905;SDS011;13291;40.472;-3.878;2023-05-21T03:33:06;6.07;;;2.13;;
7905;SDS011;13291;40.472;-3.878;2023-05-21T03:35:32;4.07;;;2.10;;
7905;SDS011;13291;40.472;-3.878;2023-05-21T03:37:59;5.57;;;2.50;;
7905;SDS011;13291;40.472;-3.878;2023-05-21T03:40:28;4.87;;;2.83;;
7905;SDS011;13291;40.472;-3.878;2023-05-21T03:42:55;5.83;;;2.73;;
7905;SDS011;13291;40.472;-3.878;2023-05-21T03:45:21;4.50;;;2.00;;
7905;SDS011;13291;40.472;-3.878;2023-05-21T03:47:48;4.60;;;2.00;;
7905;SDS011;13291;40.472;-3.878;2023-05-21T03:50:15;4.70;;;2.00;;
7905;SDS011;13291;40.472;-3.878;2023-05-21T03:52:42;3.67;;;1.90;;
7905;SDS011;13291;40.472;-3.878;2023-05-21T03:55:09;3.43;;;1.67;;
7905;SDS011;13291;40.472;-3.878;2023-05-21T03:57:37;3.30;;;2.50;;
7905;SDS011;13291;40.472;-3.878;2023-05-21T04:00:05;3.13;;;2.03;;
7905;SDS011;13291;40.472;-3.878;2023-05-21T04:02:33;5.70;;;2.10;;
7905;SDS011;13291;40.472;-3.878;2023-05-21T04:05:00;2.50;;;2.13;;
7905;SDS011;13291;40.472;-3.878;2023-05-21T04:07:27;2.87;;;2.30;;
7905;SDS011;13291;40.472;-3.878;2023-05-21T04:09:55;7.40;;;2.27;;
7905;SDS011;13291;40.472;-3.878;2023-05-21T04:12:22;3.40;;;2.10;;
7905;SDS011;13291;40.472;-3.878;2023-05-21T04:14:50;2.17;;;1.67;;
7905;SDS011;13291;40.472;-3.878;2023-05-21T04:17:17;3.00;;;1.80;;
7905;SDS011;13291;40.472;-3.878;2023-05-21T04:19:44;3.43;;;2.40;;
7905;SDS011;13291;40.472;-3.878;2023-05-21T04:22:11;2.17;;;1.97;;
7905;SDS011;13291;40.472;-3.878;2023-05-21T04:24:38;2.50;;;1.70;;
7905;SDS011;13291;40.472;-3.878;2023-05-21T04:27:05;4.57;;;2.03;;
7905;SDS011;13291;40.472;-3.878;2023-05-21T04:29:34;3.47;;;2.00;;
7905;SDS011;13291;40.472;-3.878;2023-05-21T04:32:03;4.90;;;2.23;;
7905;SDS011;13291;40.472;-3.878;2023-05-21T04:34:30;2.50;;;2.03;;
7905;SDS011;13291;40.472;-3.878;2023-05-21T04:36:58;3.93;;;2.13;;
7905;SDS011;13291;40.472;-3.878;2023-05-21T04:39:25;2.33;;;1.77;;
7905;SDS011;13291;40.472;-3.878;2023-05-21T04:41:52;2.47;;;2.00;;
7905;SDS011;13291;40.472;-3.878;2023-05-21T04:44:20;3.37;;;2.20;;
7905;SDS011;13291;40.472;-3.878;2023-05-21T04:46:47;3.30;;;2.10;;
7905;SDS011;13291;40.472;-3.878;2023-05-21T04:49:16;4.27;;;2.27;;
7905;SDS011;13291;40.472;-3.878;2023-05-21T04:51:42;3.47;;;1.93;;
7905;SDS011;13291;40.472;-3.878;2023-05-21T04:54:10;3.00;;;1.80;;
7905;SDS011;13291;40.472;-3.878;2023-05-21T04:56:37;5.00;;;2.13;;
7905;SDS011;13291;40.472;-3.878;2023-05-21T04:59:04;5.53;;;2.47;;
7905;SDS011;13291;40.472;-3.878;2023-05-21T05:01:31;3.40;;;2.03;;
7905;SDS011;13291;40.472;-3.878;2023-05-21T05:03:59;3.13;;;2.30;;
7905;SDS011;13291;40.472;-3.878;2023-05-21T05:06:27;3.53;;;2.23;;
7905;SDS011;13291;40.472;-3.878;2023-05-21T05:08:54;2.50;;;2.00;;
7905;SDS011;13291;40.472;-3.878;2023-05-21T05:11:21;4.80;;;2.00;;
7905;SDS011;13291;40.472;-3.878;2023-05-21T05:13:48;3.50;;;2.00;;
7905;SDS011;13291;40.472;-3.878;2023-05-21T05:16:14;5.77;;;1.87;;
7905;SDS011;13291;40.472;-3.878;2023-05-21T05:18:43;4.53;;;2.07;;
7905;SDS011;13291;40.472;-3.878;2023-05-21T05:21:10;2.30;;;1.87;;
7905;SDS011;13291;40.472;-3.878;2023-05-21T05:23:38;4.93;;;2.13;;
7905;SDS011;13291;40.472;-3.878;2023-05-21T05:26:05;2.90;;;2.03;;
7905;SDS011;13291;40.472;-3.878;2023-05-21T05:28:32;3.37;;;2.33;;
7905;SDS011;13291;40.472;-3.878;2023-05-21T05:30:59;2.20;;;2.00;;
7905;SDS011;13291;40.472;-3.878;2023-05-21T05:33:26;2.80;;;2.00;;
7905;SDS011;13291;40.472;-3.878;2023-05-21T05:35:53;4.43;;;2.33;;
7905;SDS011;13291;40.472;-3.878;2023-05-21T05:38:20;2.70;;;1.90;;
7905;SDS011;13291;40.472;-3.878;2023-05-21T05:40:48;2.83;;;2.00;;
7905;SDS011;13291;40.472;-3.878;2023-05-21T05:43:15;3.33;;;2.40;;
7905;SDS011;13291;40.472;-3.878;2023-05-21T05:45:42;5.20;;;2.60;;
7905;SDS011;13291;40.472;-3.878;2023-05-21T05:48:09;4.57;;;2.40;;
7905;SDS011;13291;40.472;-3.878;2023-05-21T05:50:36;1.97;;;1.83;;
7905;SDS011;13291;40.472;-3.878;2023-05-21T05:53:02;3.03;;;2.13;;
7905;SDS011;13291;40.472;-3.878;2023-05-21T05:55:31;3.70;;;2.27;;
7905;SDS011;13291;40.472;-3.878;2023-05-21T05:57:59;3.33;;;2.07;;
7905;SDS011;13291;40.472;-3.878;2023-05-21T06:00:26;6.47;;;2.63;;
7905;SDS011;13291;40.472;-3.878;2023-05-21T06:02:53;4.10;;;2.20;;
7905;SDS011;13291;40.472;-3.878;2023-05-21T06:05:20;2.10;;;1.50;;
7905;SDS011;13291;40.472;-3.878;2023-05-21T06:07:47;3.03;;;1.97;;
7905;SDS011;13291;40.472;-3.878;2023-05-21T06:10:14;4.30;;;2.50;;
7905;SDS011;13291;40.472;-3.878;2023-05-21T06:12:41;4.30;;;2.17;;
7905;SDS011;13291;40.472;-3.878;2023-05-21T06:15:09;3.03;;;1.80;;
7905;SDS011;13291;40.472;-3.878;2023-05-21T06:17:38;4.70;;;2.43;;
7905;SDS011;13291;40.472;-3.878;2023-05-21T06:20:06;3.70;;;2.17;;
7905;SDS011;13291;40.472;-3.878;2023-05-21T06:22:34;5.30;;;2.20;;
7905;SDS011;13291;40.472;-3.878;2023-05-21T06:25:02;4.60;;;2.27;;
7905;SDS011;13291;40.472;-3.878;2023-05-21T06:27:29;2.80;;;2.20;;
7905;SDS011;13291;40.472;-3.878;2023-05-21T06:29:56;4.93;;;2.20;;
7905;SDS011;13291;40.472;-3.878;2023-05-21T06:32:24;7.07;;;2.50;;
7905;SDS011;13291;40.472;-3.878;2023-05-21T06:34:51;4.17;;;2.50;;
7905;SDS011;13291;40.472;-3.878;2023-05-21T06:37:18;3.73;;;2.10;;
7905;SDS011;13291;40.472;-3.878;2023-05-21T06:39:46;2.57;;;2.30;;
7905;SDS011;13291;40.472;-3.878;2023-05-21T06:42:13;4.57;;;2.37;;
7905;SDS011;13291;40.472;-3.878;2023-05-21T06:44:40;4.53;;;2.40;;
7905;SDS011;13291;40.472;-3.878;2023-05-21T06:47:07;3.97;;;2.50;;
7905;SDS011;13291;40.472;-3.878;2023-05-21T06:49:35;3.33;;;2.17;;
7905;SDS011;13291;40.472;-3.878;2023-05-21T06:52:02;6.43;;;2.63;;
7905;SDS011;13291;40.472;-3.878;2023-05-21T06:54:29;6.93;;;2.20;;
7905;SDS011;13291;40.472;-3.878;2023-05-21T06:56:56;4.53;;;2.17;;
7905;SDS011;13291;40.472;-3.878;2023-05-21T06:59:23;10.03;;;2.57;;
7905;SDS011;13291;40.472;-3.878;2023-05-21T07:01:50;5.87;;;2.37;;
7905;SDS011;13291;40.472;-3.878;2023-05-21T07:04:17;3.63;;;2.23;;
7905;SDS011;13291;40.472;-3.878;2023-05-21T07:06:45;3.10;;;2.33;;
7905;SDS011;13291;40.472;-3.878;2023-05-21T07:09:12;4.73;;;2.40;;
7905;SDS011;13291;40.472;-3.878;2023-05-21T07:11:39;3.07;;;2.40;;
7905;SDS011;13291;40.472;-3.878;2023-05-21T07:14:07;3.67;;;2.70;;
7905;SDS011;13291;40.472;-3.878;2023-05-21T07:16:34;4.73;;;2.20;;
7905;SDS011;13291;40.472;-3.878;2023-05-21T07:19:01;7.00;;;2.67;;
7905;SDS011;13291;40.472;-3.878;2023-05-21T07:21:28;4.27;;;2.23;;
7905;SDS011;13291;40.472;-3.878;2023-05-21T07:23:56;5.50;;;2.87;;
7905;SDS011;13291;40.472;-3.878;2023-05-21T07:26:23;3.77;;;2.80;;
7905;SDS011;13291;40.472;-3.878;2023-05-21T07:28:51;4.03;;;3.63;;
7905;SDS011;13291;40.472;-3.878;2023-05-21T07:31:18;7.10;;;3.37;;
7905;SDS011;13291;40.472;-3.878;2023-05-21T07:33:44;3.50;;;3.20;;
7905;SDS011;13291;40.472;-3.878;2023-05-21T07:36:11;7.37;;;3.40;;
7905;SDS011;13291;40.472;-3.878;2023-05-21T07:38:38;4.97;;;3.10;;
7905;SDS011;13291;40.472;-3.878;2023-05-21T07:41:06;7.00;;;4.37;;
7905;SDS011;13291;40.472;-3.878;2023-05-21T07:43:34;7.27;;;3.57;;
7905;SDS011;13291;40.472;-3.878;2023-05-21T07:46:01;4.03;;;2.90;;
7905;SDS011;13291;40.472;-3.878;2023-05-21T07:48:28;6.03;;;3.70;;
7905;SDS011;13291;40.472;-3.878;2023-05-21T07:50:57;4.00;;;2.77;;
7905;SDS011;13291;40.472;-3.878;2023-05-21T07:53:24;4.23;;;3.27;;
7905;SDS011;13291;40.472;-3.878;2023-05-21T07:55:51;5.90;;;3.30;;
7905;SDS011;13291;40.472;-3.878;2023-05-21T07:58:19;3.53;;;2.60;;
7905;SDS011;13291;40.472;-3.878;2023-05-21T08:00:47;5.07;;;2.80;;
7905;SDS011;13291;40.472;-3.878;2023-05-21T08:03:15;4.27;;;2.53;;
7905;SDS011;13291;40.472;-3.878;2023-05-21T08:05:43;3.50;;;2.20;;
7905;SDS011;13291;40.472;-3.878;2023-05-21T08:08:13;8.63;;;3.80;;
7905;SDS011;13291;40.472;-3.878;2023-05-21T08:10:39;5.23;;;3.00;;
7905;SDS011;13291;40.472;-3.878;2023-05-21T08:13:06;6.77;;;2.33;;
7905;SDS011;13291;40.472;-3.878;2023-05-21T08:15:35;6.33;;;2.70;;
7905;SDS011;13291;40.472;-3.878;2023-05-21T08:18:02;3.93;;;2.23;;
7905;SDS011;13291;40.472;-3.878;2023-05-21T08:20:29;3.23;;;2.10;;
7905;SDS011;13291;40.472;-3.878;2023-05-21T08:22:57;3.90;;;2.60;;
7905;SDS011;13291;40.472;-3.878;2023-05-21T08:25:24;4.40;;;2.50;;
7905;SDS011;13291;40.472;-3.878;2023-05-21T08:27:52;3.87;;;3.00;;
7905;SDS011;13291;40.472;-3.878;2023-05-21T08:30:18;3.00;;;2.20;;
7905;SDS011;13291;40.472;-3.878;2023-05-21T08:32:47;3.63;;;2.80;;
7905;SDS011;13291;40.472;-3.878;2023-05-21T08:35:14;5.20;;;2.13;;
7905;SDS011;13291;40.472;-3.878;2023-05-21T08:37:41;4.33;;;2.40;;
7905;SDS011;13291;40.472;-3.878;2023-05-21T08:40:08;5.53;;;2.60;;
7905;SDS011;13291;40.472;-3.878;2023-05-21T08:42:38;5.10;;;2.60;;
7905;SDS011;13291;40.472;-3.878;2023-05-21T08:45:09;3.00;;;2.70;;
7905;SDS011;13291;40.472;-3.878;2023-05-21T08:47:37;5.20;;;2.20;;
7905;SDS011;13291;40.472;-3.878;2023-05-21T08:50:09;2.70;;;2.10;;
7905;SDS011;13291;40.472;-3.878;2023-05-21T08:52:37;6.10;;;2.80;;
7905;SDS011;13291;40.472;-3.878;2023-05-21T08:55:05;3.73;;;2.60;;
7905;SDS011;13291;40.472;-3.878;2023-05-21T08:57:33;5.47;;;2.63;;
7905;SDS011;13291;40.472;-3.878;2023-05-21T09:00:00;6.60;;;2.40;;
7905;SDS011;13291;40.472;-3.878;2023-05-21T09:02:28;2.93;;;2.60;;
7905;SDS011;13291;40.472;-3.878;2023-05-21T09:04:59;4.70;;;2.60;;
7905;SDS011;13291;40.472;-3.878;2023-05-21T09:07:29;2.07;;;1.87;;
7905;SDS011;13291;40.472;-3.878;2023-05-21T09:10:01;5.10;;;2.30;;
7905;SDS011;13291;40.472;-3.878;2023-05-21T09:12:30;5.43;;;2.70;;
7905;SDS011;13291;40.472;-3.878;2023-05-21T09:14:57;4.73;;;2.90;;
7905;SDS011;13291;40.472;-3.878;2023-05-21T09:17:25;7.43;;;2.17;;
7905;SDS011;13291;40.472;-3.878;2023-05-21T09:20:05;4.40;;;2.50;;
7905;SDS011;13291;40.472;-3.878;2023-05-21T09:22:37;2.53;;;1.87;;
7905;SDS011;13291;40.472;-3.878;2023-05-21T09:25:06;6.83;;;2.50;;
7905;SDS011;13291;40.472;-3.878;2023-05-21T09:27:34;2.90;;;2.50;;
7905;SDS011;13291;40.472;-3.878;2023-05-21T09:30:02;3.40;;;2.20;;
7905;SDS011;13291;40.472;-3.878;2023-05-21T09:32:29;2.87;;;2.37;;
7905;SDS011;13291;40.472;-3.878;2023-05-21T09:34:56;4.30;;;2.53;;
7905;SDS011;13291;40.472;-3.878;2023-05-21T09:37:23;4.27;;;2.60;;
7905;SDS011;13291;40.472;-3.878;2023-05-21T09:39:53;3.93;;;2.60;;
7905;SDS011;13291;40.472;-3.878;2023-05-21T09:42:20;4.30;;;2.50;;
7905;SDS011;13291;40.472;-3.878;2023-05-21T09:44:47;4.03;;;2.43;;
7905;SDS011;13291;40.472;-3.878;2023-05-21T09:47:18;4.17;;;2.03;;
7905;SDS011;13291;40.472;-3.878;2023-05-21T09:49:46;3.13;;;2.30;;
7905;SDS011;13291;40.472;-3.878;2023-05-21T09:52:21;2.50;;;2.30;;
7905;SDS011;13291;40.472;-3.878;2023-05-21T09:54:50;4.80;;;2.50;;
7905;SDS011;13291;40.472;-3.878;2023-05-21T09:57:23;5.80;;;2.33;;
7905;SDS011;13291;40.472;-3.878;2023-05-21T09:59:50;2.93;;;2.43;;
7905;SDS011;13291;40.472;-3.878;2023-05-21T10:02:18;5.30;;;2.90;;
7905;SDS011;13291;40.472;-3.878;2023-05-21T10:04:47;3.37;;;2.60;;
7905;SDS011;13291;40.472;-3.878;2023-05-21T10:07:15;4.53;;;2.47;;
7905;SDS011;13291;40.472;-3.878;2023-05-21T10:09:45;5.87;;;2.30;;
7905;SDS011;13291;40.472;-3.878;2023-05-21T10:12:14;3.83;;;2.50;;
7905;SDS011;13291;40.472;-3.878;2023-05-21T10:14:44;4.27;;;2.47;;
7905;SDS011;13291;40.472;-3.878;2023-05-21T10:17:14;5.60;;;2.57;;
7905;SDS011;13291;40.472;-3.878;2023-05-21T10:19:42;4.60;;;2.73;;
7905;SDS011;13291;40.472;-3.878;2023-05-21T10:22:11;5.63;;;2.73;;
7905;SDS011;13291;40.472;-3.878;2023-05-21T10:24:40;4.50;;;2.57;;
7905;SDS011;13291;40.472;-3.878;2023-05-21T10:27:08;5.80;;;2.63;;
7905;SDS011;13291;40.472;-3.878;2023-05-21T10:29:37;4.50;;;2.27;;
7905;SDS011;13291;40.472;-3.878;2023-05-21T10:32:08;5.20;;;2.40;;
7905;SDS011;13291;40.472;-3.878;2023-05-21T10:34:37;5.80;;;2.43;;
7905;SDS011;13291;40.472;-3.878;2023-05-21T10:37:04;3.60;;;2.30;;
7905;SDS011;13291;40.472;-3.878;2023-05-21T10:39:33;3.20;;;2.30;;
7905;SDS011;13291;40.472;-3.878;2023-05-21T10:42:06;4.03;;;2.50;;
7905;SDS011;13291;40.472;-3.878;2023-05-21T10:44:44;3.70;;;2.50;;
7905;SDS011;13291;40.472;-3.878;2023-05-21T10:47:32;3.50;;;2.50;;
7905;SDS011;13291;40.472;-3.878;2023-05-21T10:50:23;2.97;;;2.20;;
7905;SDS011;13291;40.472;-3.878;2023-05-21T10:53:06;4.50;;;2.37;;
7905;SDS011;13291;40.472;-3.878;2023-05-21T10:55:50;3.30;;;2.33;;
7905;SDS011;13291;40.472;-3.878;2023-05-21T10:58:41;9.00;;;2.70;;
7905;SDS011;13291;40.472;-3.878;2023-05-21T11:01:27;4.53;;;2.53;;
7905;SDS011;13291;40.472;-3.878;2023-05-21T11:03:59;4.10;;;2.77;;
7905;SDS011;13291;40.472;-3.878;2023-05-21T11:06:26;4.63;;;2.57;;
7905;SDS011;13291;40.472;-3.878;2023-05-21T11:08:53;6.97;;;3.23;;
7905;SDS011;13291;40.472;-3.878;2023-05-21T11:11:39;3.87;;;2.50;;
7905;SDS011;13291;40.472;-3.878;2023-05-21T11:14:29;5.03;;;2.77;;
7905;SDS011;13291;40.472;-3.878;2023-05-21T11:16:59;4.73;;;2.23;;
7905;SDS011;13291;40.472;-3.878;2023-05-21T11:19:35;4.40;;;2.60;;
7905;SDS011;13291;40.472;-3.878;2023-05-21T11:22:06;3.47;;;2.83;;
7905;SDS011;13291;40.472;-3.878;2023-05-21T11:24:37;4.00;;;2.40;;
7905;SDS011;13291;40.472;-3.878;2023-05-21T11:27:06;3.00;;;2.37;;
7905;SDS011;13291;40.472;-3.878;2023-05-21T11:29:40;3.50;;;2.30;;
7905;SDS011;13291;40.472;-3.878;2023-05-21T11:32:08;7.07;;;2.57;;
7905;SDS011;13291;40.472;-3.878;2023-05-21T11:34:39;5.87;;;2.47;;
7905;SDS011;13291;40.472;-3.878;2023-05-21T11:40:21;4.37;;;2.63;;
7905;SDS011;13291;40.472;-3.878;2023-05-21T11:42:51;3.07;;;2.43;;
7905;SDS011;13291;40.472;-3.878;2023-05-21T11:45:20;5.60;;;2.70;;
7905;SDS011;13291;40.472;-3.878;2023-05-21T11:47:47;4.20;;;2.50;;
7905;SDS011;13291;40.472;-3.878;2023-05-21T11:50:17;4.63;;;2.83;;
7905;SDS011;13291;40.472;-3.878;2023-05-21T11:52:44;3.93;;;2.93;;
7905;SDS011;13291;40.472;-3.878;2023-05-21T11:55:11;4.17;;;2.33;;
7905;SDS011;13291;40.472;-3.878;2023-05-21T11:57:40;3.60;;;2.67;;
7905;SDS011;13291;40.472;-3.878;2023-05-21T12:00:12;5.87;;;3.07;;
7905;SDS011;13291;40.472;-3.878;2023-05-21T12:02:44;4.50;;;2.40;;
7905;SDS011;13291;40.472;-3.878;2023-05-21T12:05:12;4.70;;;2.70;;
7905;SDS011;13291;40.472;-3.878;2023-05-21T12:07:40;3.70;;;2.67;;
7905;SDS011;13291;40.472;-3.878;2023-05-21T12:10:08;3.17;;;2.70;;
7905;SDS011;13291;40.472;-3.878;2023-05-21T12:12:35;5.67;;;2.50;;
7905;SDS011;13291;40.472;-3.878;2023-05-21T12:15:03;3.20;;;2.50;;
7905;SDS011;13291;40.472;-3.878;2023-05-21T12:17:31;4.13;;;2.70;;
7905;SDS011;13291;40.472;-3.878;2023-05-21T12:19:58;5.27;;;2.70;;
7905;SDS011;13291;40.472;-3.878;2023-05-21T12:22:25;2.70;;;2.30;;
7905;SDS011;13291;40.472;-3.878;2023-05-21T12:24:55;3.53;;;2.67;;
7905;SDS011;13291;40.472;-3.878;2023-05-21T12:27:25;3.60;;;2.73;;
7905;SDS011;13291;40.472;-3.878;2023-05-21T12:29:52;3.40;;;2.67;;
7905;SDS011;13291;40.472;-3.878;2023-05-21T12:32:20;4.20;;;2.93;;
7905;SDS011;13291;40.472;-3.878;2023-05-21T12:34:47;2.83;;;2.30;;
7905;SDS011;13291;40.472;-3.878;2023-05-21T12:37:17;3.40;;;2.50;;
7905;SDS011;13291;40.472;-3.878;2023-05-21T12:39:47;5.80;;;2.50;;
7905;SDS011;13291;40.472;-3.878;2023-05-21T12:42:22;4.13;;;2.87;;
7905;SDS011;13291;40.472;-3.878;2023-05-21T12:44:50;4.40;;;3.10;;
7905;SDS011;13291;40.472;-3.878;2023-05-21T12:47:18;4.90;;;2.80;;
7905;SDS011;13291;40.472;-3.878;2023-05-21T12:49:47;2.67;;;2.47;;
7905;SDS011;13291;40.472;-3.878;2023-05-21T12:52:17;3.30;;;2.67;;
7905;SDS011;13291;40.472;-3.878;2023-05-21T12:54:48;3.47;;;2.60;;
7905;SDS011;13291;40.472;-3.878;2023-05-21T12:57:17;4.20;;;3.23;;
7905;SDS011;13291;40.472;-3.878;2023-05-21T12:59:47;5.23;;;3.20;;
7905;SDS011;13291;40.472;-3.878;2023-05-21T13:02:20;4.73;;;2.60;;
7905;SDS011;13291;40.472;-3.878;2023-05-21T13:04:52;3.30;;;2.80;;
7905;SDS011;13291;40.472;-3.878;2023-05-21T13:07:20;3.63;;;2.93;;
7905;SDS011;13291;40.472;-3.878;2023-05-21T13:09:47;3.30;;;2.40;;
7905;SDS011;13291;40.472;-3.878;2023-05-21T13:12:18;5.20;;;2.63;;
7905;SDS011;13291;40.472;-3.878;2023-05-21T13:14:46;4.53;;;2.90;;
7905;SDS011;13291;40.472;-3.878;2023-05-21T13:17:14;3.73;;;2.77;;
7905;SDS011;13291;40.472;-3.878;2023-05-21T13:19:41;3.87;;;3.10;;
7905;SDS011;13291;40.472;-3.878;2023-05-21T13:22:07;4.20;;;3.03;;
7905;SDS011;13291;40.472;-3.878;2023-05-21T13:24:35;4.30;;;3.73;;
7905;SDS011;13291;40.472;-3.878;2023-05-21T13:27:03;3.90;;;3.30;;
7905;SDS011;13291;40.472;-3.878;2023-05-21T13:29:32;6.83;;;4.13;;
7905;SDS011;13291;40.472;-3.878;2023-05-21T13:32:02;6.90;;;3.00;;
7905;SDS011;13291;40.472;-3.878;2023-05-21T13:34:29;4.23;;;3.00;;
7905;SDS011;13291;40.472;-3.878;2023-05-21T13:36:56;4.20;;;3.07;;
7905;SDS011;13291;40.472;-3.878;2023-05-21T13:39:23;4.50;;;2.87;;
7905;SDS011;13291;40.472;-3.878;2023-05-21T13:41:52;3.97;;;3.20;;
7905;SDS011;13291;40.472;-3.878;2023-05-21T13:44:19;4.20;;;3.00;;
7905;SDS011;13291;40.472;-3.878;2023-05-21T13:46:47;5.23;;;3.57;;
7905;SDS011;13291;40.472;-3.878;2023-05-21T13:49:14;3.90;;;3.00;;
7905;SDS011;13291;40.472;-3.878;2023-05-21T13:51:41;3.40;;;2.93;;
7905;SDS011;13291;40.472;-3.878;2023-05-21T13:54:08;6.30;;;3.30;;
7905;SDS011;13291;40.472;-3.878;2023-05-21T13:56:35;4.97;;;3.90;;
7905;SDS011;13291;40.472;-3.878;2023-05-21T13:59:03;4.33;;;3.93;;
7905;SDS011;13291;40.472;-3.878;2023-05-21T14:01:29;4.77;;;3.50;;
7905;SDS011;13291;40.472;-3.878;2023-05-21T14:03:58;3.60;;;3.27;;
7905;SDS011;13291;40.472;-3.878;2023-05-21T14:06:28;5.57;;;3.53;;
7905;SDS011;13291;40.472;-3.878;2023-05-21T14:08:56;4.93;;;3.23;;
7905;SDS011;13291;40.472;-3.878;2023-05-21T14:11:24;4.17;;;3.60;;
7905;SDS011;13291;40.472;-3.878;2023-05-21T14:13:51;4.67;;;3.10;;
7905;SDS011;13291;40.472;-3.878;2023-05-21T14:16:18;4.30;;;3.30;;
7905;SDS011;13291;40.472;-3.878;2023-05-21T14:18:46;4.40;;;3.10;;
7905;SDS011;13291;40.472;-3.878;2023-05-21T14:21:15;4.20;;;2.80;;
7905;SDS011;13291;40.472;-3.878;2023-05-21T14:23:42;3.73;;;2.70;;
7905;SDS011;13291;40.472;-3.878;2023-05-21T14:26:08;3.97;;;2.80;;
7905;SDS011;13291;40.472;-3.878;2023-05-21T14:28:35;5.67;;;3.70;;
7905;SDS011;13291;40.472;-3.878;2023-05-21T14:31:02;4.00;;;2.93;;
7905;SDS011;13291;40.472;-3.878;2023-05-21T14:33:30;3.47;;;3.10;;
7905;SDS011;13291;40.472;-3.878;2023-05-21T14:35:57;3.90;;;2.80;;
7905;SDS011;13291;40.472;-3.878;2023-05-21T14:38:26;3.43;;;3.03;;
7905;SDS011;13291;40.472;-3.878;2023-05-21T14:40:54;4.20;;;2.73;;
7905;SDS011;13291;40.472;-3.878;2023-05-21T14:43:21;3.93;;;3.10;;
7905;SDS011;13291;40.472;-3.878;2023-05-21T14:45:48;2.63;;;2.40;;
7905;SDS011;13291;40.472;-3.878;2023-05-21T14:48:15;4.60;;;2.80;;
7905;SDS011;13291;40.472;-3.878;2023-05-21T14:50:46;3.87;;;3.00;;
7905;SDS011;13291;40.472;-3.878;2023-05-21T14:53:13;4.10;;;2.90;;
7905;SDS011;13291;40.472;-3.878;2023-05-21T14:55:41;3.70;;;2.40;;
7905;SDS011;13291;40.472;-3.878;2023-05-21T14:58:08;4.47;;;2.27;;